메인 페이지
METAR-TAF:

METAR-TAF

공항 :

Shreveport Regional Airport

슈리브포트, 루이지애나, 미국

위도: 32-26-49N, 경도: 093-49-27W, 고도: 78m

현재 날씨관측

예보는 34분 전, 13:12시(UTC)에 발표되었습니다.
5kt
온도 27°C
습도 84%
기압 1011 hPa
시정: 9.7km
고도 900ft 상공 구름 조금
고도 2800ft 상공 구름 보통
고도 3500ft 상공 구름 많음
연무,

METAR: KSHV 251312Z 17005KT 6SM HZ FEW009 SCT028 BKN035 27/24 A2986

시각: 08:46 (13:46 UTC)

예보

예보는 2 시간 26분 전, 11:20시(UTC)에 발표되었습니다.
예보 대상 시간: 25일 12시부터 26일 12시까지 (UTC)
남남동7kt
시정: 10km
고도 1100ft 상공 구름 조금
고도 7000ft 상공 흐림
일시적
25일 12시부터 25일 15시까지 (UTC)
고도 1500ft 상공 구름 많음
25일 1500시부터 (UTC)
7kt
시정: 10km
고도 2500ft 상공 구름 많음
25일 1800시부터 (UTC)
9kt
시정: 10km
고도 4000ft 상공 구름 보통
26일 0000시부터 (UTC)
6kt
시정: 10km
고도 25000ft 상공 구름 보통
26일 0500시부터 (UTC)
9kt
시정: 10km
고도 25000ft 상공 흐림

TAF: KSHV 251120Z 2512/2612 15007KT P6SM FEW011 OVC070 TEMPO 2512/2515 BKN015 FM251500 18007KT P6SM BKN025 FM251800 18009KT P6SM SCT040 FM260000 18006KT P6SM SCT250 FM260500 18009KT P6SM OVC250

4,000개 이상의 공항 관측 자료 및 예보 (METAR 및 TAF 보고).

지도상에서 검색 가능한 기상관측소가 노란 점과 빨간 점으로 표시되어 있습니다.

기상관측소 명을 보려면 표시 위로 마우스를 이동하세요.

날씨 관측과 예보를 보려면 클릭하세요.

지도 변경 : 확대하려면 엑스 표시가 있는 녹색 버튼, 축소하려면 빼기 표시가 있는 녹색 버튼, 다음 페이지의 지도를 보려면 녹색 화살표를 클릭하세요.


METAR-TAF: